Time;durP1;ratioP1;P1;durP2;ratioP2;P2;SDS_P1;SDS_P2;PMS_P1;PMS_P2;Temp;Humidity;BMP_temperature;BMP_pressure;BME280_temperature;BME280_humidity;BME280_pressure;Samples;Min_cycle;Max_cycle;Signal;HPM_P1;HPM_P2
2022/05/19 00:01:52;;;;;;;4.35;1.95;;;;;;;13.54;59.74;100853.28;5049455;28;20033;-37
2022/05/19 00:04:18;;;;;;;6.30;2.15;;;;;;;13.39;60.01;100842.69;5050541;28;20028;-37
2022/05/19 00:06:43;;;;;;;3.20;1.95;;;;;;;13.23;60.49;100852.63;5052454;28;20412;-37
2022/05/19 00:09:09;;;;;;;4.07;2.50;;;;;;;13.29;59.74;100837.66;5052738;28;20381;-37
2022/05/19 00:11:35;;;;;;;3.97;2.28;;;;;;;13.45;60.23;100849.94;5052772;28;20409;-37
2022/05/19 00:14:00;;;;;;;3.42;2.40;;;;;;;13.47;60.93;100851.38;5052818;28;20029;-37
2022/05/19 00:16:27;;;;;;;3.92;2.60;;;;;;;13.46;60.95;100859.59;5051919;28;20039;-37
2022/05/19 00:18:52;;;;;;;5.72;3.40;;;;;;;13.51;60.92;100859.03;5052527;28;20127;-37
2022/05/19 00:21:18;;;;;;;5.82;3.58;;;;;;;13.21;63.14;100857.34;5052544;28;20392;-37
2022/05/19 00:23:43;;;;;;;5.40;4.22;;;;;;;12.76;65.01;100861.25;5052877;28;20039;-37
2022/05/19 00:26:08;;;;;;;9.00;4.20;;;;;;;12.77;65.12;100855.69;5052488;28;20056;-38
2022/05/19 00:28:34;;;;;;;7.13;4.88;;;;;;;12.69;65.22;100853.97;5052218;28;20025;-37
2022/05/19 00:30:59;;;;;;;8.75;4.82;;;;;;;12.25;66.45;100854.13;5052894;28;20049;-37
2022/05/19 00:33:25;;;;;;;7.30;4.50;;;;;;;12.27;66.64;100852.91;5052360;28;20039;-37
2022/05/19 00:35:51;;;;;;;6.43;5.10;;;;;;;11.72;68.89;100859.56;5043388;28;20032;-37
2022/05/19 00:38:17;;;;;;;7.40;4.85;;;;;;;11.75;69.05;100856.53;5031593;28;20024;-37
2022/05/19 00:40:49;;;;;;;7.60;4.47;;;;;;;12.05;69.11;100854.72;5032058;28;20025;-39
2022/05/19 00:43:15;;;;;;;8.00;4.60;;;;;;;12.20;68.57;100852.00;5032592;28;20041;-37
2022/05/19 00:45:54;;;;;;;7.07;4.78;;;;;;;12.19;68.14;100861.03;5032220;28;20025;-39
2022/05/19 00:48:27;;;;;;;9.00;4.60;;;;;;;12.25;68.20;100852.28;5032308;28;20144;-37
2022/05/19 00:51:03;;;;;;;9.70;4.57;;;;;;;12.44;66.68;100855.38;5032904;28;20253;-38
2022/05/19 00:53:40;;;;;;;9.77;4.65;;;;;;;12.46;66.96;100850.66;5032597;28;20057;-37
2022/05/19 00:56:12;;;;;;;7.57;4.78;;;;;;;12.59;66.45;100858.81;5032438;28;20569;-37
2022/05/19 00:58:54;;;;;;;8.00;4.47;;;;;;;12.81;66.64;100856.16;5032302;28;20048;-37
2022/05/19 01:01:19;;;;;;;7.45;4.85;;;;;;;12.63;67.22;100849.41;5032411;28;20484;-37
2022/05/19 01:03:54;;;;;;;9.30;4.95;;;;;;;11.69;70.03;100842.09;5033282;28;20045;-37
2022/05/19 01:06:21;;;;;;;9.35;5.78;;;;;;;11.90;69.82;100845.91;5032045;28;20022;-37
2022/05/19 01:08:59;;;;;;;10.02;5.93;;;;;;;12.00;69.69;100851.78;5030993;28;20175;-37
2022/05/19 01:11:25;;;;;;;9.48;6.57;;;;;;;12.04;68.93;100853.06;5032070;28;20018;-37
2022/05/19 01:13:51;;;;;;;11.57;6.57;;;;;;;11.59;71.74;100849.53;5031887;28;20025;-37
2022/05/19 01:16:18;;;;;;;9.57;6.32;;;;;;;11.43;73.37;100849.72;5030909;28;20045;-37
2022/05/19 01:18:45;;;;;;;9.73;6.18;;;;;;;11.57;72.65;100848.06;5031455;28;20079;-37
2022/05/19 01:21:15;;;;;;;9.05;5.95;;;;;;;11.20;73.76;100847.13;5031084;28;20025;-36
2022/05/19 01:24:17;;;;;;;9.02;6.03;;;;;;;11.10;75.11;100848.19;5032160;28;20025;-37
2022/05/19 01:26:53;;;;;;;10.52;6.60;;;;;;;11.44;73.98;100846.88;5030644;28;20033;-37
2022/05/19 01:29:24;;;;;;;8.20;5.80;;;;;;;11.63;73.03;100850.84;5031284;28;20045;-37
2022/05/19 01:31:52;;;;;;;8.38;5.25;;;;;;;11.79;71.82;100851.69;5031304;28;20060;-37
2022/05/19 01:34:23;;;;;;;6.95;5.07;;;;;;;11.84;71.35;100843.94;5031241;28;20056;-37
2022/05/19 01:36:49;;;;;;;6.70;4.78;;;;;;;11.43;72.67;100852.38;5047672;28;20677;-37
2022/05/19 01:39:23;;;;;;;6.75;4.72;;;;;;;10.97;74.90;100853.28;5050420;28;20104;-37
2022/05/19 01:42:07;;;;;;;8.48;4.78;;;;;;;10.93;74.66;100850.16;5051230;28;20036;-37
2022/05/19 01:44:43;;;;;;;5.55;3.53;;;;;;;10.95;73.35;100850.81;5051853;28;20021;-37
2022/05/19 01:47:32;;;;;;;8.23;3.88;;;;;;;10.99;73.09;100850.47;5050740;28;20044;-38
2022/05/19 01:50:10;;;;;;;5.10;3.35;;;;;;;11.10;72.07;100847.34;5051559;28;20033;-37
2022/05/19 01:53:00;;;;;;;5.88;3.45;;;;;;;11.51;69.43;100847.78;5051404;28;20036;-37
2022/05/19 01:55:31;;;;;;;3.67;3.10;;;;;;;11.02;69.77;100847.41;5051286;28;20468;-37
2022/05/19 01:58:11;;;;;;;5.55;2.85;;;;;;;11.14;70.06;100848.66;5050986;28;20412;-40
2022/05/19 02:00:37;;;;;;;5.68;3.42;;;;;;;11.06;69.95;100849.56;5050766;28;20060;-36
2022/05/19 02:03:44;;;;;;;7.03;3.45;;;;;;;11.51;69.61;100852.28;5051065;28;20036;-37
2022/05/19 02:06:15;;;;;;;5.97;3.83;;;;;;;11.73;68.93;100847.91;5050730;28;20087;-37
2022/05/19 02:08:54;;;;;;;5.75;3.65;;;;;;;11.65;68.82;100854.16;5050735;28;20405;-37
2022/05/19 02:11:26;;;;;;;6.50;3.70;;;;;;;11.80;68.82;100850.66;5050661;28;20029;-37
2022/05/19 02:13:54;;;;;;;5.63;3.90;;;;;;;11.57;69.15;100851.56;5050836;28;20032;-37
2022/05/19 02:16:21;;;;;;;4.97;3.92;;;;;;;11.73;68.51;100855.91;5050978;28;20013;-37
2022/05/19 02:18:48;;;;;;;7.07;4.35;;;;;;;11.34;70.60;100855.13;5050833;28;20481;-37
2022/05/19 02:21:17;;;;;;;8.70;4.32;;;;;;;11.32;70.26;100835.00;5050709;28;20078;-36
2022/05/19 02:23:45;;;;;;;7.00;4.38;;;;;;;10.96;71.05;100848.97;5051445;28;20033;-37
2022/05/19 02:26:10;;;;;;;6.90;4.25;;;;;;;10.51;73.29;100853.31;5050346;28;20036;-38
2022/05/19 02:28:44;;;;;;;9.73;4.40;;;;;;;10.40;73.68;100862.50;5050674;28;20051;-37
2022/05/19 02:31:10;;;;;;;7.35;4.47;;;;;;;10.68;72.10;100856.66;5051271;28;20150;-37
2022/05/19 02:33:36;;;;;;;8.00;3.70;;;;;;;10.50;71.75;100856.94;5049316;28;20499;-37
2022/05/19 02:36:03;;;;;;;7.80;3.70;;;;;;;10.32;72.07;100865.22;5040279;28;20052;-37
2022/05/19 02:38:28;;;;;;;6.63;3.47;;;;;;;10.84;69.66;100858.41;5030208;28;20346;-37
2022/05/19 02:40:54;;;;;;;5.00;3.38;;;;;;;10.80;69.44;100860.56;5030105;28;20108;-37
2022/05/19 02:43:19;;;;;;;5.35;3.50;;;;;;;11.16;68.15;100857.31;5029858;28;20028;-36
2022/05/19 02:45:47;;;;;;;5.40;3.15;;;;;;;11.45;67.82;100855.69;5030434;28;20043;-36
2022/05/19 02:48:14;;;;;;;6.30;3.22;;;;;;;11.66;66.82;100858.47;5030284;28;20104;-36
2022/05/19 02:50:40;;;;;;;6.22;3.17;;;;;;;11.58;66.64;100860.41;5030020;28;20022;-37
2022/05/19 02:53:06;;;;;;;6.47;3.50;;;;;;;11.91;66.37;100866.22;5030213;28;20032;-37
2022/05/19 02:55:32;;;;;;;8.00;3.67;;;;;;;11.84;65.88;100865.25;5030370;28;20105;-37
2022/05/19 02:57:58;;;;;;;6.90;3.45;;;;;;;11.74;66.50;100866.34;5028835;28;20108;-37
2022/05/19 03:00:25;;;;;;;4.95;3.67;;;;;;;11.82;65.88;100869.97;5028667;28;20148;-37
2022/05/19 03:02:53;;;;;;;5.80;3.45;;;;;;;11.80;65.68;100839.97;5031019;28;20029;-42
2022/05/19 03:05:23;;;;;;;7.20;3.33;;;;;;;11.88;66.75;100862.06;5030505;28;20144;-42
2022/05/19 03:07:49;;;;;;;4.35;3.30;;;;;;;11.74;66.94;100858.38;5029881;28;20366;-42
2022/05/19 03:10:15;;;;;;;5.32;3.63;;;;;;;11.85;65.53;100865.09;5030458;28;20040;-44
2022/05/19 03:12:41;;;;;;;4.28;3.22;;;;;;;11.94;65.77;100857.84;5030068;28;20025;-42
2022/05/19 03:15:07;;;;;;;8.77;5.75;;;;;;;11.65;66.24;100870.16;5030457;28;20025;-42
2022/05/19 03:17:33;;;;;;;7.05;3.60;;;;;;;11.54;67.04;100865.28;5029751;28;20420;-43
2022/05/19 03:19:59;;;;;;;7.20;4.40;;;;;;;11.75;66.92;100867.22;5028972;28;20025;-42
2022/05/19 03:22:27;;;;;;;15.05;10.05;;;;;;;11.69;66.39;100865.25;5030325;28;20025;-43
2022/05/19 03:24:53;;;;;;;6.30;4.10;;;;;;;11.65;66.58;100866.63;5030060;28;20120;-42
2022/05/19 03:27:20;;;;;;;5.97;3.50;;;;;;;11.88;65.56;100877.22;5028680;28;20482;-41
2022/05/19 03:29:46;;;;;;;5.68;3.05;;;;;;;12.00;64.76;100875.78;5029048;28;20061;-42
2022/05/19 03:32:12;;;;;;;8.48;3.28;;;;;;;11.49;66.40;100875.63;5029523;28;20394;-43
2022/05/19 03:34:37;;;;;;;7.40;3.30;;;;;;;11.52;65.98;100877.97;5028998;28;20032;-43
2022/05/19 03:37:04;;;;;;;10.25;3.33;;;;;;;11.71;65.80;100885.41;5028831;28;20033;-43
2022/05/19 03:39:30;;;;;;;4.97;3.00;;;;;;;11.86;65.96;100884.56;5027608;28;20568;-43
2022/05/19 03:41:55;;;;;;;4.35;3.00;;;;;;;11.80;65.84;100888.81;5029330;28;20104;-43
2022/05/19 03:44:21;;;;;;;5.53;3.05;;;;;;;12.08;65.00;100890.88;5029355;28;20032;-43
2022/05/19 03:46:46;;;;;;;6.88;3.17;;;;;;;12.94;63.29;100883.00;5028412;28;20095;-43
2022/05/19 03:49:13;;;;;;;5.25;3.20;;;;;;;13.02;62.42;100880.22;5028870;28;20109;-43
2022/05/19 03:51:40;;;;;;;9.20;3.28;;;;;;;13.56;60.68;100886.81;5029295;28;20536;-43
2022/05/19 03:54:06;;;;;;;6.15;2.70;;;;;;;14.12;59.20;100893.13;5028855;28;20030;-42
2022/05/19 03:56:31;;;;;;;6.43;2.72;;;;;;;14.44;57.96;100900.44;5028931;28;20013;-42
2022/05/19 03:58:57;;;;;;;6.53;2.40;;;;;;;14.86;56.99;100895.84;5029020;28;20026;-43
2022/05/19 04:01:22;;;;;;;4.10;2.67;;;;;;;15.28;55.06;100892.19;5029668;28;20496;-43
2022/05/19 04:03:49;;;;;;;9.20;2.70;;;;;;;15.15;55.06;100895.69;5030169;28;20076;-45
2022/05/19 04:06:15;;;;;;;5.80;2.40;;;;;;;15.10;54.64;100899.00;5028863;28;20025;-43
2022/05/19 04:08:41;;;;;;;6.88;2.55;;;;;;;14.85;54.65;100904.13;5029058;28;20041;-44
2022/05/19 04:11:06;;;;;;;9.65;2.42;;;;;;;14.80;55.24;100901.22;5028480;28;20095;-42
2022/05/19 04:13:32;;;;;;;9.48;2.50;;;;;;;15.54;54.16;100908.25;5028978;28;20107;-43
2022/05/19 04:15:57;;;;;;;6.65;2.50;;;;;;;15.71;52.00;100897.94;5028785;28;20408;-43
2022/05/19 04:18:23;;;;;;;10.52;3.35;;;;;;;16.13;51.08;100895.78;5028211;28;20551;-43
2022/05/19 04:20:49;;;;;;;11.73;4.95;;;;;;;16.37;52.10;100896.94;5027033;28;20056;-43
2022/05/19 04:23:16;;;;;;;11.63;3.13;;;;;;;16.60;49.58;100900.91;5029919;28;20047;-42
2022/05/19 04:25:41;;;;;;;9.98;4.50;;;;;;;17.11;49.38;100897.31;5035645;28;20037;-43
2022/05/19 04:28:07;;;;;;;11.10;3.22;;;;;;;17.36;48.27;100899.19;5037702;28;20048;-43
2022/05/19 04:30:33;;;;;;;10.00;4.55;;;;;;;17.76;46.85;100901.50;5045110;28;20061;-43
2022/05/19 04:32:58;;;;;;;8.60;4.05;;;;;;;18.28;46.08;100898.50;5039249;28;20052;-44
2022/05/19 04:35:24;;;;;;;6.57;2.67;;;;;;;18.76;44.71;100903.03;5042026;28;20027;-43
2022/05/19 04:37:50;;;;;;;5.95;2.45;;;;;;;18.79;43.53;100907.97;5034407;28;20446;-43
2022/05/19 04:40:18;;;;;;;6.70;2.75;;;;;;;19.24;43.37;100902.09;5039079;28;20485;-43
2022/05/19 04:42:44;;;;;;;41.78;19.70;;;;;;;19.52;42.42;100900.59;5035429;28;20028;-44
2022/05/19 04:45:13;;;;;;;14.98;3.83;;;;;;;19.06;43.38;100900.31;5037668;28;20021;-43
2022/05/19 04:47:38;;;;;;;4.03;2.08;;;;;;;19.59;42.51;100897.78;5040859;28;20082;-44
2022/05/19 04:50:05;;;;;;;4.95;2.13;;;;;;;19.67;42.50;100897.44;5048707;28;20427;-44
2022/05/19 04:52:31;;;;;;;7.50;3.08;;;;;;;19.93;41.72;100904.22;5051421;28;20087;-44
2022/05/19 04:54:57;;;;;;;8.70;2.70;;;;;;;20.40;41.23;100898.72;5045545;28;20033;-43
2022/05/19 04:57:22;;;;;;;6.75;2.33;;;;;;;20.89;40.83;100904.50;5043100;28;20108;-43
2022/05/19 04:59:48;;;;;;;4.88;2.60;;;;;;;21.33;39.44;100913.91;5051709;28;20031;-44
2022/05/19 05:02:13;;;;;;;7.03;2.20;;;;;;;21.57;38.60;100904.56;5051756;28;20029;-43
2022/05/19 05:04:39;;;;;;;5.55;3.17;;;;;;;21.65;37.53;100904.13;5052347;28;20558;-43
2022/05/19 05:07:05;;;;;;;16.15;10.40;;;;;;;21.92;37.54;100908.00;5052070;28;20017;-44
2022/05/19 05:09:30;;;;;;;22.15;14.80;;;;;;;21.94;38.51;100908.56;5052055;28;20109;-43
2022/05/19 05:11:56;;;;;;;16.13;7.40;;;;;;;21.90;37.98;100908.25;5051558;28;20075;-43
2022/05/19 05:14:22;;;;;;;11.45;2.95;;;;;;;22.54;37.58;100915.84;5051317;28;20025;-43
2022/05/19 05:16:52;;;;;;;13.63;8.75;;;;;;;22.64;37.58;100915.94;5051218;28;20032;-43
2022/05/19 05:19:21;;;;;;;10.88;5.63;;;;;;;23.26;36.02;100918.41;5049494;28;20021;-42
2022/05/19 05:21:48;;;;;;;5.38;2.28;;;;;;;23.25;35.45;100924.91;5051347;28;20029;-43
2022/05/19 05:24:14;;;;;;;3.13;1.75;;;;;;;23.62;35.06;100920.31;5052031;28;20033;-43
2022/05/19 05:26:39;;;;;;;3.90;1.75;;;;;;;23.85;34.13;100920.19;5051016;28;20523;-43
2022/05/19 05:29:05;;;;;;;6.93;3.15;;;;;;;24.39;33.10;100925.34;5050136;28;20843;-42
2022/05/19 05:31:31;;;;;;;4.03;2.00;;;;;;;24.53;33.82;100914.78;5049996;28;20437;-42
2022/05/19 05:33:56;;;;;;;6.57;1.95;;;;;;;23.66;33.17;100928.75;5050482;28;20225;-42
2022/05/19 05:36:21;;;;;;;6.90;2.00;;;;;;;23.29;32.94;100924.16;5050121;28;20017;-43
2022/05/19 05:38:47;;;;;;;6.20;1.83;;;;;;;22.98;33.46;100928.47;5050557;28;20159;-43
2022/05/19 05:41:13;;;;;;;3.83;1.80;;;;;;;23.11;34.29;100922.63;5049922;28;20112;-42
2022/05/19 05:43:40;;;;;;;11.55;1.90;;;;;;;23.36;33.31;100918.50;5050429;28;20017;-43
2022/05/19 05:46:09;;;;;;;4.45;1.77;;;;;;;22.69;34.70;100919.78;5050390;28;20029;-44
2022/05/19 05:48:36;;;;;;;6.07;1.73;;;;;;;23.45;33.32;100925.06;5049855;28;20044;-43
2022/05/19 05:51:09;;;;;;;10.13;6.60;;;;;;;22.98;34.41;100912.16;5049919;28;20036;-43
2022/05/19 05:53:35;;;;;;;4.05;2.55;;;;;;;24.04;32.92;100917.84;5050630;28;20029;-44
2022/05/19 05:56:03;;;;;;;6.05;1.83;;;;;;;24.28;32.15;100913.59;5050561;28;20021;-44
2022/05/19 05:58:30;;;;;;;6.45;1.80;;;;;;;23.59;33.39;100917.31;5050441;28;20017;-43
2022/05/19 06:00:56;;;;;;;6.30;1.85;;;;;;;24.63;32.34;100903.91;5050349;28;20163;-42
2022/05/19 06:03:21;;;;;;;8.13;1.92;;;;;;;24.52;30.78;100910.41;5050643;28;20040;-43
2022/05/19 06:05:47;;;;;;;8.80;1.70;;;;;;;25.45;30.26;100905.88;5050311;28;20489;-43
2022/05/19 06:08:12;;;;;;;2.80;1.50;;;;;;;25.68;29.95;100907.19;5049936;28;20035;-43
2022/05/19 06:10:38;;;;;;;9.52;1.80;;;;;;;26.39;28.62;100911.59;5050198;28;20509;-43
2022/05/19 06:13:04;;;;;;;4.00;1.70;;;;;;;26.58;29.08;100911.75;5050245;28;20025;-44
2022/05/19 06:15:30;;;;;;;4.60;1.77;;;;;;;26.41;29.96;100916.78;5050335;28;20128;-43
2022/05/19 06:17:55;;;;;;;4.88;1.90;;;;;;;26.92;28.76;100913.72;5050437;28;20025;-43
2022/05/19 06:20:21;;;;;;;7.53;1.80;;;;;;;26.48;29.25;100909.06;5050104;28;20493;-43
2022/05/19 06:22:47;;;;;;;5.22;2.00;;;;;;;27.11;28.68;100913.84;5049927;28;20489;-44
2022/05/19 06:25:16;;;;;;;7.10;1.48;;;;;;;27.55;27.65;100915.66;5050229;28;20108;-43
2022/05/19 06:27:41;;;;;;;;;;;;;;;28.19;27.19;100915.50;5050169;28;20528;-46
2022/05/19 06:30:08;;;;;;;8.35;2.20;;;;;;;27.56;27.73;100911.81;5049980;28;19956;-43
2022/05/19 06:32:35;;;;;;;10.82;2.30;;;;;;;27.90;27.10;100910.94;5050277;28;20048;-43
2022/05/19 06:35:00;;;;;;;6.80;2.00;;;;;;;27.23;28.03;100917.03;5048080;28;20114;-43
2022/05/19 06:37:25;;;;;;;8.13;2.10;;;;;;;27.83;27.02;100908.50;5029803;28;20529;-43
2022/05/19 06:39:51;;;;;;;3.30;1.60;;;;;;;28.19;27.15;100910.84;5029985;28;20070;-43
2022/05/19 06:42:16;;;;;;;3.05;1.42;;;;;;;28.84;26.25;100917.59;5029587;28;20029;-43
2022/05/19 06:44:43;;;;;;;5.28;2.00;;;;;;;28.68;26.14;100917.03;5030179;28;20025;-44
2022/05/19 06:47:14;;;;;;;5.03;2.05;;;;;;;28.91;26.34;100906.28;5029554;28;20022;-44
2022/05/19 06:49:48;;;;;;;3.50;1.80;;;;;;;28.51;26.48;100919.47;5030048;28;20044;-43
2022/05/19 06:52:16;;;;;;;3.28;1.67;;;;;;;28.42;26.83;100914.63;5029657;28;20068;-43
2022/05/19 06:54:47;;;;;;;6.22;2.00;;;;;;;29.03;26.50;100912.94;5029663;28;20338;-44
2022/05/19 06:57:12;;;;;;;6.43;1.80;;;;;;;28.94;25.72;100913.88;5029629;28;20433;-44
2022/05/19 06:59:38;;;;;;;5.63;2.05;;;;;;;29.33;25.44;100910.78;5030308;28;20025;-43
2022/05/19 07:02:05;;;;;;;6.22;2.05;;;;;;;29.15;24.79;100907.00;5028891;28;20033;-43
2022/05/19 07:04:31;;;;;;;6.57;1.80;;;;;;;28.61;26.08;100914.66;5029833;28;20052;-43
2022/05/19 07:06:57;;;;;;;4.35;1.73;;;;;;;29.10;26.21;100904.31;5029376;28;20019;-43
2022/05/19 07:09:22;;;;;;;6.05;2.00;;;;;;;29.49;25.89;100910.50;5029557;28;20032;-43
2022/05/19 07:11:47;;;;;;;8.50;1.75;;;;;;;29.02;24.73;100905.81;5029731;28;20021;-42
2022/05/19 07:14:14;;;;;;;5.68;1.67;;;;;;;29.01;24.83;100903.38;5028463;28;20507;-43
2022/05/19 07:16:41;;;;;;;6.13;1.70;;;;;;;28.51;25.21;100914.78;5028610;28;20537;-43
2022/05/19 07:21:50;;;;;;;7.47;2.45;;;;;;;28.85;24.71;100902.81;5028607;28;20055;-44
2022/05/19 07:24:19;;;;;;;4.60;1.60;;;;;;;29.39;24.18;100900.53;5029249;28;20435;-45
2022/05/19 07:26:47;;;;;;;4.70;1.80;;;;;;;29.76;24.40;100907.03;5029388;28;20022;-44
2022/05/19 07:29:13;;;;;;;4.72;1.40;;;;;;;30.51;23.36;100899.41;5028586;28;20151;-44
2022/05/19 07:31:39;;;;;;;10.38;1.65;;;;;;;30.75;22.73;100904.63;5029627;28;20111;-44
2022/05/19 07:34:06;;;;;;;5.40;1.83;;;;;;;30.62;22.60;100908.25;5028960;28;20021;-43
2022/05/19 07:36:32;;;;;;;7.32;1.80;;;;;;;30.32;22.66;100905.06;5028994;28;20017;-44
2022/05/19 07:38:59;;;;;;;7.55;1.60;;;;;;;30.10;22.97;100903.03;5029015;28;20029;-44
2022/05/19 07:41:29;;;;;;;6.35;2.10;;;;;;;30.26;23.04;100889.78;5028905;28;20654;-44
2022/05/19 07:43:57;;;;;;;7.60;2.00;;;;;;;29.00;23.44;100901.75;5029368;28;20198;-45
2022/05/19 07:46:26;;;;;;;3.40;1.50;;;;;;;28.96;23.21;100892.47;5028531;28;20486;-44
2022/05/19 07:48:55;;;;;;;;;;;;;;;28.93;23.49;100899.38;5029575;28;20048;-44
2022/05/19 07:51:36;;;;;;;6.35;1.92;;;;;;;29.51;23.09;100892.66;5029277;28;19913;-43
2022/05/19 07:54:08;;;;;;;4.63;1.48;;;;;;;29.78;23.65;100893.81;5029056;28;20026;-44
2022/05/19 07:56:34;;;;;;;7.00;2.00;;;;;;;30.77;22.97;100897.69;5041614;28;20404;-43
2022/05/19 07:59:01;;;;;;;6.90;2.10;;;;;;;29.99;22.96;100899.69;5048626;28;20485;-42
2022/05/19 08:01:29;;;;;;;2.83;1.42;;;;;;;29.86;21.88;100895.03;5047887;28;20021;-42
2022/05/19 08:03:55;;;;;;;4.15;1.70;;;;;;;29.85;21.46;100898.88;5049178;28;20024;-43
2022/05/19 08:06:21;;;;;;;2.65;1.35;;;;;;;28.81;21.90;100893.56;5048054;28;20532;-47
2022/05/19 08:08:46;;;;;;;4.43;1.38;;;;;;;28.80;22.94;100895.47;5048343;28;20017;-42
2022/05/19 08:11:12;;;;;;;4.00;1.40;;;;;;;28.90;21.96;100889.03;5048501;28;20061;-44
2022/05/19 08:16:22;;;;;;;8.23;3.03;;;;;;;29.02;22.11;100897.59;5048791;28;20483;-45
2022/05/19 08:18:48;;;;;;;6.43;2.10;;;;;;;29.35;22.08;100891.31;5048082;28;20028;-44
2022/05/19 08:21:14;;;;;;;12.43;5.07;;;;;;;29.44;22.47;100887.56;5046720;28;20025;-43
2022/05/19 08:23:44;;;;;;;4.10;2.10;;;;;;;29.44;21.32;100889.50;5048624;28;20052;-44
2022/05/19 08:26:11;;;;;;;2.78;1.52;;;;;;;28.97;22.55;100888.66;5050513;28;20473;-42
2022/05/19 08:28:39;;;;;;;4.18;1.30;;;;;;;28.87;21.88;100888.81;5051928;28;20049;-43
2022/05/19 08:31:14;;;;;;;5.13;1.98;;;;;;;28.43;23.28;100885.34;5052247;28;20056;-44
2022/05/19 08:33:42;;;;;;;4.68;2.60;;;;;;;29.02;21.78;100878.41;5052055;28;20028;-43
2022/05/19 08:36:09;;;;;;;4.70;1.73;;;;;;;29.33;22.31;100885.31;5040826;28;20482;-43
2022/05/19 08:38:35;;;;;;;4.00;1.50;;;;;;;29.81;21.28;100882.22;5030830;28;20108;-43
2022/05/19 08:41:05;;;;;;;4.97;1.55;;;;;;;30.11;19.94;100883.50;5031921;28;20088;-44
2022/05/19 08:43:45;;;;;;;4.78;1.70;;;;;;;29.43;19.52;100869.50;5032405;28;20484;-45
2022/05/19 08:46:19;;;;;;;5.22;1.80;;;;;;;27.23;21.11;100884.25;5031637;28;20068;-43
2022/05/19 08:48:48;;;;;;;7.40;1.77;;;;;;;28.11;21.89;100880.59;5031492;28;20040;-44
2022/05/19 08:51:14;;;;;;;7.20;2.47;;;;;;;28.96;20.86;100870.56;5032548;28;20095;-44
2022/05/19 08:53:42;;;;;;;2.85;1.35;;;;;;;28.21;21.65;100880.44;5032178;28;20030;-45
2022/05/19 08:56:27;;;;;;;2.88;1.77;;;;;;;26.83;21.72;100869.03;5031633;28;20104;-42
2022/05/19 08:59:11;;;;;;;15.25;5.50;;;;;;;27.80;21.02;100879.03;5032042;28;20109;-43
2022/05/19 09:01:53;;;;;;;5.20;2.25;;;;;;;27.52;22.33;100877.97;5031413;28;20396;-43
2022/05/19 09:04:48;;;;;;;5.43;1.92;;;;;;;28.52;21.39;100877.28;5031839;28;20401;-43
2022/05/19 09:10:07;;;;;;;2.00;1.40;;;;;;;29.51;21.02;100861.66;5031455;28;20044;-43
2022/05/19 09:12:37;;;;;;;4.18;1.52;;;;;;;28.77;20.12;100868.69;5031658;28;20025;-43
2022/05/19 09:15:05;;;;;;;6.95;1.30;;;;;;;27.74;21.60;100871.16;5031194;28;20139;-44
2022/05/19 09:17:36;;;;;;;4.22;1.25;;;;;;;28.72;20.29;100867.97;5031071;28;20029;-43
2022/05/19 09:20:09;;;;;;;2.15;1.20;;;;;;;28.30;20.02;100864.19;5031480;28;20021;-45
2022/05/19 09:22:34;;;;;;;4.13;1.77;;;;;;;28.60;20.40;100838.31;5030893;28;20040;-44
2022/05/19 09:25:08;;;;;;;4.93;1.60;;;;;;;29.04;19.94;100850.72;5031267;28;20335;-43
2022/05/19 09:27:40;;;;;;;7.28;1.90;;;;;;;29.23;20.51;100851.50;5030947;28;20037;-44
2022/05/19 09:30:14;;;;;;;3.63;1.70;;;;;;;28.72;20.24;100854.28;5031342;28;20053;-43
2022/05/19 09:32:51;;;;;;;6.88;1.50;;;;;;;28.92;19.49;100843.00;5031626;28;20044;-44
2022/05/19 09:35:37;;;;;;;3.40;1.38;;;;;;;28.36;20.92;100838.38;5035239;28;20024;-44
2022/05/19 09:38:12;;;;;;;3.00;1.23;;;;;;;28.67;20.39;100841.47;5050446;28;20036;-43
2022/05/19 09:40:42;;;;;;;3.10;1.38;;;;;;;29.00;19.76;100838.75;5050116;28;20060;-43
2022/05/19 09:43:33;;;;;;;3.60;1.30;;;;;;;29.61;19.18;100828.56;5050844;28;20028;-43
2022/05/19 09:46:09;;;;;;;1.52;1.08;;;;;;;29.31;19.95;100827.25;5051062;28;20025;-44
2022/05/19 09:48:41;;;;;;;4.82;1.60;;;;;;;29.83;19.65;100819.63;5050708;28;20033;-43
2022/05/19 09:51:14;;;;;;;3.50;1.33;;;;;;;29.27;19.70;100821.56;5051119;28;20032;-43
2022/05/19 09:53:49;;;;;;;4.60;1.52;;;;;;;29.07;20.11;100824.63;5049501;28;20409;-43
2022/05/19 09:56:19;;;;;;;1.70;1.20;;;;;;;29.18;20.08;100810.47;5040005;28;20040;-43
2022/05/19 09:58:47;;;;;;;5.78;1.50;;;;;;;28.53;20.53;100803.09;5030372;28;20620;-43
2022/05/19 10:01:33;;;;;;;7.15;1.65;;;;;;;29.11;20.75;100807.31;5030264;28;20430;-43
2022/05/19 10:04:01;;;;;;;4.65;1.52;;;;;;;28.97;20.11;100811.94;5030768;28;20052;-44
2022/05/19 10:07:06;;;;;;;3.58;1.60;;;;;;;29.51;19.63;100818.63;5030738;28;20036;-43
2022/05/19 10:09:39;;;;;;;7.53;1.77;;;;;;;30.40;19.93;100805.47;5030622;28;20033;-43
2022/05/19 10:12:11;;;;;;;4.57;1.42;;;;;;;29.25;20.10;100810.09;5030390;28;20404;-44
2022/05/19 10:14:40;;;;;;;3.15;1.33;;;;;;;29.78;19.11;100804.09;5030594;28;20031;-43
2022/05/19 10:17:13;;;;;;;3.58;1.58;;;;;;;29.35;18.70;100789.88;5030663;28;20029;-44
2022/05/19 10:19:44;;;;;;;7.32;1.77;;;;;;;28.12;20.75;100786.44;5030125;28;20152;-43
2022/05/19 10:22:33;;;;;;;2.72;1.60;;;;;;;27.33;20.71;100787.72;5030458;28;20321;-43
2022/05/19 10:25:26;;;;;;;2.95;1.70;;;;;;;28.24;21.18;100786.84;5030201;28;20125;-44
2022/05/19 10:31:22;;;;;;;2.25;1.40;;;;;;;29.61;20.41;100779.22;5014788;28;20067;-43
2022/05/19 10:33:56;;;;;;;7.20;1.80;;;;;;;29.25;19.46;100758.03;5030238;28;20033;-44
2022/05/19 10:36:37;;;;;;;2.38;1.73;;;;;;;28.84;22.23;100767.81;5042590;28;20044;-44
2022/05/19 10:39:21;;;;;;;1.85;1.40;;;;;;;29.50;21.88;100759.41;5049216;28;20029;-44
2022/05/19 10:41:52;;;;;;;4.45;1.60;;;;;;;29.96;20.59;100763.13;5049664;28;20025;-43
2022/05/19 10:44:33;;;;;;;2.58;1.60;;;;;;;29.85;20.72;100767.22;5049908;28;20032;-43
2022/05/19 10:47:16;;;;;;;3.35;1.52;;;;;;;30.32;20.08;100762.31;5048942;28;20064;-43
2022/05/19 10:49:58;;;;;;;2.03;1.38;;;;;;;28.15;20.33;100758.50;5048745;28;20024;-43
2022/05/19 10:52:36;;;;;;;4.05;1.30;;;;;;;28.44;22.01;100759.16;5049661;28;20105;-44
2022/05/19 10:55:25;;;;;;;4.93;1.63;;;;;;;28.04;21.03;100757.84;5048799;28;20055;-42
2022/05/19 10:58:09;;;;;;;4.93;1.60;;;;;;;28.97;20.17;100757.97;5029915;28;20426;-43
2022/05/19 11:00:54;;;;;;;3.45;2.00;;;;;;;28.22;22.29;100758.97;5029112;28;20125;-43
2022/05/19 11:03:49;;;;;;;4.53;2.08;;;;;;;29.74;20.02;100748.25;5029402;28;20515;-44
2022/05/19 11:06:32;;;;;;;5.15;1.80;;;;;;;30.11;20.21;100743.56;5029794;28;20142;-43
2022/05/19 11:09:13;;;;;;;8.20;1.75;;;;;;;30.63;20.06;100743.13;5029095;28;20117;-44
2022/05/19 11:12:03;;;;;;;23.35;2.65;;;;;;;30.49;20.03;100732.22;5029623;28;20044;-44
2022/05/19 11:14:49;;;;;;;6.70;1.60;;;;;;;29.99;19.95;100730.38;5029293;28;20533;-43
2022/05/19 11:17:41;;;;;;;2.83;1.50;;;;;;;31.00;18.87;100732.84;5029134;28;20041;-44
2022/05/19 11:20:19;;;;;;;4.72;1.80;;;;;;;31.50;18.00;100732.50;5029120;28;20572;-43
2022/05/19 11:22:49;;;;;;;3.53;1.50;;;;;;;30.94;19.48;100726.66;5029318;28;20468;-43
2022/05/19 11:28:25;;;;;;;2.92;1.50;;;;;;;29.56;19.81;100716.25;5029003;28;20040;-44
2022/05/19 11:31:06;;;;;;;4.40;1.60;;;;;;;29.35;21.86;100721.38;5029136;28;20049;-44
2022/05/19 11:33:37;;;;;;;4.03;1.60;;;;;;;29.08;21.17;100714.75;5029241;28;20057;-43
2022/05/19 11:36:13;;;;;;;4.47;1.45;;;;;;;29.23;21.21;100708.19;5039504;28;20021;-44
2022/05/19 11:38:50;;;;;;;4.93;1.65;;;;;;;29.88;19.73;100695.28;5048783;28;20035;-44
2022/05/19 11:41:22;;;;;;;6.43;2.00;;;;;;;30.32;20.41;100697.22;5048653;28;20511;-45
2022/05/19 11:43:53;;;;;;;6.03;1.52;;;;;;;30.01;20.84;100687.00;5049224;28;20062;-44
2022/05/19 11:46:18;;;;;;;3.83;2.13;;;;;;;30.34;19.25;100694.97;5049071;28;20029;-44
2022/05/19 11:55:12;;;;;;;10.15;1.40;;;;;;;30.85;18.60;100665.34;5049222;28;20078;-43
2022/05/19 11:58:20;;;;;;;3.47;1.30;;;;;;;30.65;18.93;100679.63;5048708;28;20052;-44
2022/05/19 12:01:00;;;;;;;3.42;1.55;;;;;;;30.20;19.70;100680.50;5050726;28;20033;-44